createdAt,value
2023-03-10T00:00:00.599Z,8.95
2023-03-10T00:02:31.152Z,5.95
2023-03-10T00:04:58.981Z,7.28
2023-03-10T00:07:26.760Z,7.50
2023-03-10T00:09:54.654Z,7.45
2023-03-10T00:12:22.718Z,7.15
2023-03-10T00:14:51.890Z,5.47
2023-03-10T00:17:19.857Z,6.43
2023-03-10T00:19:47.570Z,6.20
2023-03-10T00:22:15.463Z,6.95
2023-03-10T00:24:43.265Z,4.18
2023-03-10T00:27:11.130Z,7.53
2023-03-10T00:29:38.925Z,5.22
2023-03-10T00:32:08.789Z,6.38
2023-03-10T00:34:36.809Z,5.95
2023-03-10T00:37:05.363Z,5.13
2023-03-10T00:39:33.260Z,4.63
2023-03-10T00:42:01.061Z,4.97
2023-03-10T00:44:29.396Z,3.25
2023-03-10T00:46:57.265Z,3.78
2023-03-10T00:49:26.466Z,4.22
2023-03-10T00:51:54.511Z,3.63
2023-03-10T00:54:22.341Z,3.38
2023-03-10T00:56:50.385Z,3.92
2023-03-10T00:59:18.251Z,3.25
2023-03-10T01:01:46.193Z,2.95
2023-03-10T01:04:15.239Z,3.75
2023-03-10T01:06:47.448Z,3.90
2023-03-10T01:09:16.110Z,4.85
2023-03-10T01:11:44.007Z,3.80
2023-03-10T01:14:17.404Z,3.80
2023-03-10T01:16:45.482Z,1.83
2023-03-10T01:19:13.265Z,2.22
2023-03-10T01:21:41.376Z,3.47
2023-03-10T01:24:16.111Z,3.33
2023-03-10T01:26:47.168Z,3.30
2023-03-10T01:29:14.945Z,2.47
2023-03-10T01:31:42.808Z,1.13
2023-03-10T01:34:10.611Z,3.30
2023-03-10T01:36:38.353Z,2.20
2023-03-10T01:39:07.127Z,2.85
2023-03-10T01:41:40.321Z,2.78
2023-03-10T01:44:16.207Z,5.80
2023-03-10T01:46:49.596Z,4.03
2023-03-10T01:49:38.337Z,3.58
2023-03-10T01:52:11.619Z,3.35
2023-03-10T01:54:45.542Z,2.20
2023-03-10T01:57:16.580Z,2.25
2023-03-10T01:59:44.983Z,3.20
2023-03-10T02:02:13.495Z,0.85
2023-03-10T02:04:44.366Z,3.42
2023-03-10T02:07:13.976Z,2.45
2023-03-10T02:09:46.056Z,1.83
2023-03-10T02:12:18.304Z,3.78
2023-03-10T02:14:48.451Z,2.97
2023-03-10T02:17:18.966Z,1.08
2023-03-10T02:20:05.038Z,1.63
2023-03-10T02:22:32.937Z,0.75
2023-03-10T02:25:10.911Z,4.05
2023-03-10T02:27:41.718Z,2.80
2023-03-10T02:30:14.469Z,1.58
2023-03-10T02:32:45.752Z,1.60
2023-03-10T02:35:14.077Z,3.85
2023-03-10T02:37:55.778Z,1.95
2023-03-10T02:40:31.914Z,1.35
2023-03-10T02:43:03.532Z,1.30
2023-03-10T02:45:34.286Z,4.47
2023-03-10T02:48:02.200Z,6.32
2023-03-10T02:50:35.375Z,8.00
2023-03-10T02:53:08.154Z,1.70
2023-03-10T02:55:36.269Z,2.97
2023-03-10T02:58:05.639Z,1.83
2023-03-10T03:00:37.584Z,2.38
2023-03-10T03:03:05.675Z,4.15
2023-03-10T03:05:33.745Z,4.60
2023-03-10T03:08:01.892Z,2.03
2023-03-10T03:10:29.935Z,1.10
2023-03-10T03:12:57.695Z,2.15
2023-03-10T03:15:28.366Z,2.25
2023-03-10T03:17:58.540Z,0.55
2023-03-10T03:20:28.246Z,1.45
2023-03-10T03:22:57.215Z,1.95
2023-03-10T03:25:27.282Z,1.08
2023-03-10T03:27:55.362Z,0.73
2023-03-10T03:30:25.541Z,0.82
2023-03-10T03:32:56.666Z,2.08
2023-03-10T03:35:27.452Z,0.98
2023-03-10T03:37:56.062Z,3.33
2023-03-10T03:40:27.789Z,1.75
2023-03-10T03:42:56.856Z,0.75
2023-03-10T03:45:27.650Z,0.85
2023-03-10T03:47:58.223Z,1.45
2023-03-10T03:50:28.288Z,0.93
2023-03-10T03:53:00.350Z,1.95
2023-03-10T03:55:30.900Z,1.20
2023-03-10T03:57:59.336Z,1.70
2023-03-10T04:00:27.441Z,1.63
2023-03-10T04:03:06.787Z,1.77
2023-03-10T04:05:35.112Z,0.20
2023-03-10T04:08:03.809Z,0.35
2023-03-10T04:10:31.877Z,1.02
2023-03-10T04:13:01.291Z,1.40
2023-03-10T04:15:29.278Z,0.45
2023-03-10T04:17:59.519Z,2.92
2023-03-10T04:20:30.060Z,2.30
2023-03-10T04:22:57.984Z,0.52
2023-03-10T04:25:31.882Z,4.50
2023-03-10T04:27:59.936Z,0.82
2023-03-10T04:30:29.776Z,1.45
2023-03-10T04:33:02.315Z,1.85
2023-03-10T04:35:35.076Z,1.30
2023-03-10T04:38:03.973Z,1.48
2023-03-10T04:40:32.281Z,1.55
2023-03-10T04:43:00.269Z,0.10
2023-03-10T04:45:28.716Z,2.15
2023-03-10T04:47:56.697Z,0.98
2023-03-10T04:50:24.463Z,0.68
2023-03-10T04:52:54.801Z,2.30
2023-03-10T04:55:26.823Z,3.03
2023-03-10T04:57:54.659Z,1.83
2023-03-10T05:00:23.052Z,1.85
2023-03-10T05:02:53.851Z,1.27
2023-03-10T05:05:21.922Z,4.97
2023-03-10T05:07:49.959Z,2.85
2023-03-10T05:10:19.482Z,3.30
2023-03-10T05:12:47.655Z,3.55
2023-03-10T05:15:15.909Z,2.47
2023-03-10T05:17:44.154Z,3.25
2023-03-10T05:20:14.276Z,1.30
2023-03-10T05:22:43.672Z,2.92
2023-03-10T05:25:13.243Z,4.00
2023-03-10T05:27:43.561Z,1.85
2023-03-10T05:30:15.454Z,3.45
2023-03-10T05:32:46.527Z,4.68
2023-03-10T05:35:15.717Z,7.75
2023-03-10T05:37:46.091Z,2.00
2023-03-10T05:40:16.191Z,3.22
2023-03-10T05:42:46.199Z,1.58
2023-03-10T05:45:14.779Z,2.88
2023-03-10T05:47:42.868Z,2.63
2023-03-10T05:50:12.268Z,3.25
2023-03-10T05:52:41.060Z,5.25
2023-03-10T05:55:12.427Z,1.25
2023-03-10T05:57:40.534Z,0.88
2023-03-10T06:00:12.190Z,1.02
2023-03-10T06:02:45.773Z,1.35
2023-03-10T06:05:13.858Z,1.58
2023-03-10T06:07:42.417Z,0.47
2023-03-10T06:10:11.301Z,0.80
2023-03-10T06:12:39.704Z,1.90
2023-03-10T06:15:08.893Z,1.02
2023-03-10T06:17:38.155Z,0.45
2023-03-10T06:20:07.075Z,0.60
2023-03-10T06:22:34.887Z,0.63
2023-03-10T06:25:02.930Z,0.88
2023-03-10T06:27:31.075Z,0.65
2023-03-10T06:29:58.953Z,0.50
2023-03-10T06:32:26.908Z,0.47
2023-03-10T06:34:56.140Z,0.73
2023-03-10T06:37:24.090Z,0.63
2023-03-10T06:39:52.151Z,0.60
2023-03-10T06:42:19.974Z,0.32
2023-03-10T06:44:49.238Z,1.00
2023-03-10T06:47:17.214Z,0.22
2023-03-10T06:49:45.087Z,0.20
2023-03-10T06:52:14.338Z,0.45
2023-03-10T06:54:42.143Z,0.10
2023-03-10T06:57:10.003Z,0.70
2023-03-10T06:59:38.016Z,0.60
2023-03-10T07:02:06.082Z,0.40
2023-03-10T07:04:33.979Z,0.30
2023-03-10T07:07:01.900Z,0.32
2023-03-10T07:09:31.268Z,0.10
2023-03-10T07:11:59.085Z,0.45
2023-03-10T07:14:27.162Z,0.60
2023-03-10T07:16:55.140Z,0.43
2023-03-10T07:19:23.117Z,0.95
2023-03-10T07:21:50.931Z,0.75
2023-03-10T07:24:19.642Z,1.48
2023-03-10T07:26:49.058Z,0.40
2023-03-10T07:29:16.887Z,1.17
2023-03-10T07:31:45.503Z,0.65
2023-03-10T07:34:13.335Z,0.88
2023-03-10T07:36:41.161Z,4.43
2023-03-10T07:39:09.138Z,1.25
2023-03-10T07:41:37.035Z,1.58
2023-03-10T07:44:06.470Z,2.58
2023-03-10T07:46:34.394Z,0.73
2023-03-10T07:49:04.285Z,0.93
2023-03-10T07:51:32.698Z,0.40
2023-03-10T07:54:00.911Z,0.38
2023-03-10T07:56:28.956Z,0.75
2023-03-10T07:58:57.003Z,1.17
2023-03-10T08:01:26.308Z,1.00
2023-03-10T08:03:56.757Z,1.30
2023-03-10T08:06:28.090Z,1.63
2023-03-10T08:08:56.961Z,1.00
2023-03-10T08:11:24.955Z,0.60
2023-03-10T08:13:52.829Z,1.48
2023-03-10T08:16:23.106Z,1.27
2023-03-10T08:18:53.618Z,0.40
2023-03-10T08:21:22.052Z,1.67
2023-03-10T08:23:50.195Z,2.20
2023-03-10T08:26:20.132Z,0.20
2023-03-10T08:28:49.339Z,0.68
2023-03-10T08:31:19.535Z,0.77
2023-03-10T08:33:48.790Z,1.05
2023-03-10T08:36:20.436Z,0.38
2023-03-10T08:38:50.462Z,1.30
2023-03-10T08:41:21.128Z,0.25
2023-03-10T08:43:50.443Z,0.00
2023-03-10T08:46:20.745Z,0.73
2023-03-10T08:48:49.201Z,0.73
2023-03-10T08:51:19.494Z,3.97
2023-03-10T08:53:49.105Z,1.58
2023-03-10T08:56:19.336Z,0.80
2023-03-10T08:58:47.605Z,1.42
2023-03-10T09:01:17.333Z,1.90
2023-03-10T09:03:46.850Z,0.20
2023-03-10T09:06:15.166Z,0.90
2023-03-10T09:08:44.527Z,0.50
2023-03-10T09:11:17.120Z,1.33
2023-03-10T09:13:44.999Z,0.85
2023-03-10T09:16:13.703Z,0.52
2023-03-10T09:18:41.639Z,1.10
2023-03-10T09:21:09.986Z,0.50
2023-03-10T09:23:37.890Z,4.78
2023-03-10T09:26:07.298Z,2.47
2023-03-10T09:28:35.343Z,0.73
2023-03-10T09:31:04.819Z,0.13
2023-03-10T09:33:33.300Z,0.03
2023-03-10T09:36:07.556Z,1.15
2023-03-10T09:38:36.226Z,0.10
2023-03-10T09:41:20.142Z,1.08
2023-03-10T09:43:55.522Z,0.50
2023-03-10T09:46:26.896Z,0.30
2023-03-10T09:49:01.479Z,0.73
2023-03-10T09:51:31.026Z,1.35
2023-03-10T09:54:11.618Z,0.65
2023-03-10T09:56:41.020Z,1.55
2023-03-10T09:59:14.280Z,1.38
2023-03-10T10:01:46.313Z,1.05
2023-03-10T10:04:19.146Z,1.38
2023-03-10T10:06:48.753Z,0.80
2023-03-10T10:09:26.232Z,0.77
2023-03-10T10:11:56.009Z,0.88
2023-03-10T10:14:29.974Z,2.03
2023-03-10T10:17:08.633Z,0.20
2023-03-10T10:19:39.454Z,1.35
2023-03-10T10:22:13.071Z,3.20
2023-03-10T10:24:41.626Z,0.65
2023-03-10T10:27:11.012Z,4.03
2023-03-10T10:29:42.358Z,1.77
2023-03-10T10:32:12.447Z,3.03
2023-03-10T10:34:41.876Z,1.50
2023-03-10T10:37:24.300Z,1.27
2023-03-10T10:39:53.823Z,1.60
2023-03-10T10:42:26.248Z,1.48
2023-03-10T10:44:55.975Z,1.45
2023-03-10T10:47:30.197Z,2.15
2023-03-10T10:50:19.733Z,2.22
2023-03-10T10:52:50.489Z,1.58
2023-03-10T10:55:30.209Z,1.10
2023-03-10T10:58:02.419Z,1.08
2023-03-10T11:00:32.948Z,1.08
2023-03-10T11:03:01.421Z,0.73
2023-03-10T11:05:35.855Z,1.20
2023-03-10T11:08:19.163Z,2.17
2023-03-10T11:10:54.319Z,2.80
2023-03-10T11:13:29.230Z,1.77
2023-03-10T11:16:06.076Z,1.17
2023-03-10T11:18:39.230Z,2.25
2023-03-10T11:21:14.868Z,0.55
2023-03-10T11:23:49.760Z,0.57
2023-03-10T11:26:28.107Z,1.50
2023-03-10T11:29:02.778Z,0.38
2023-03-10T11:31:40.822Z,0.20
2023-03-10T11:34:21.032Z,1.65
2023-03-10T11:36:57.646Z,2.15
2023-03-10T11:39:36.719Z,0.30
2023-03-10T11:42:12.772Z,0.30
2023-03-10T11:44:49.235Z,1.83
2023-03-10T11:47:25.750Z,0.22
2023-03-10T11:50:02.539Z,0.30
2023-03-10T11:52:33.303Z,0.22
2023-03-10T11:55:05.718Z,1.75
2023-03-10T11:57:41.120Z,0.28
2023-03-10T12:00:24.215Z,1.85
2023-03-10T12:03:07.758Z,0.85
2023-03-10T12:05:44.723Z,0.88
2023-03-10T12:08:16.855Z,0.30
2023-03-10T12:10:44.887Z,1.00
2023-03-10T12:13:26.960Z,0.60
2023-03-10T12:16:00.859Z,0.55
2023-03-10T12:18:29.535Z,1.48
2023-03-10T12:21:22.915Z,0.98
2023-03-10T12:23:52.277Z,0.70
2023-03-10T12:26:55.475Z,1.15
2023-03-10T12:29:35.834Z,1.80
2023-03-10T12:32:05.944Z,0.75
2023-03-10T12:34:34.622Z,0.52
2023-03-10T12:37:08.260Z,0.68
2023-03-10T12:39:41.992Z,0.75
2023-03-10T12:42:29.995Z,0.70
2023-03-10T12:45:24.164Z,0.85
2023-03-10T12:48:02.342Z,0.30
2023-03-10T12:50:45.688Z,3.13
2023-03-10T12:53:30.245Z,0.10
2023-03-10T12:56:20.878Z,0.63
2023-03-10T12:58:55.294Z,0.57
2023-03-10T13:01:26.760Z,0.47
2023-03-10T13:03:57.160Z,0.20
2023-03-10T13:06:34.458Z,0.30
2023-03-10T13:09:11.763Z,1.10
2023-03-10T13:11:43.278Z,1.35
2023-03-10T13:14:14.390Z,1.13
2023-03-10T13:16:54.534Z,1.38
2023-03-10T13:19:26.054Z,0.20
2023-03-10T13:21:54.622Z,0.40
2023-03-10T13:25:02.633Z,0.00
2023-03-10T13:27:33.288Z,0.50
2023-03-10T13:30:04.192Z,0.88
2023-03-10T13:32:34.027Z,2.13
2023-03-10T13:35:23.431Z,1.45
2023-03-10T13:38:08.346Z,0.10
2023-03-10T13:40:37.705Z,0.52
2023-03-10T13:43:08.530Z,0.03
2023-03-10T13:45:36.571Z,0.30
2023-03-10T13:48:06.124Z,0.35
2023-03-10T13:50:35.376Z,0.10
2023-03-10T13:53:04.603Z,0.10
2023-03-10T13:55:40.685Z,0.32
2023-03-10T13:58:12.050Z,0.10
2023-03-10T14:00:40.294Z,0.57
2023-03-10T14:03:08.945Z,0.10
2023-03-10T14:05:45.621Z,1.58
2023-03-10T14:08:20.755Z,0.30
2023-03-10T14:10:48.772Z,0.50
2023-03-10T14:13:45.082Z,0.20
2023-03-10T14:16:13.347Z,0.80
2023-03-10T14:18:43.636Z,0.10
2023-03-10T14:21:28.124Z,0.10
2023-03-10T14:23:57.244Z,0.20
2023-03-10T14:26:25.084Z,0.20
2023-03-10T14:28:53.209Z,1.25
2023-03-10T14:31:24.432Z,2.00
2023-03-10T14:33:52.909Z,0.20
2023-03-10T14:36:24.913Z,0.10
2023-03-10T14:38:54.483Z,2.50
2023-03-10T14:41:26.308Z,0.45
2023-03-10T14:43:54.295Z,0.20
2023-03-10T14:46:22.330Z,0.08
2023-03-10T14:48:50.213Z,0.63
2023-03-10T14:51:34.689Z,6.50
2023-03-10T14:54:05.301Z,4.10
2023-03-10T14:56:34.227Z,1.23
2023-03-10T14:59:02.869Z,2.10
2023-03-10T15:01:31.688Z,0.95
2023-03-10T15:03:59.586Z,0.50
2023-03-10T15:06:27.419Z,4.03
2023-03-10T15:08:55.154Z,0.65
2023-03-10T15:11:36.466Z,0.10
2023-03-10T15:14:05.981Z,0.98
2023-03-10T15:16:33.852Z,0.28
2023-03-10T15:19:01.541Z,8.27
2023-03-10T15:21:32.253Z,0.10
2023-03-10T15:24:00.063Z,0.20
2023-03-10T15:26:29.163Z,0.80
2023-03-10T15:28:56.874Z,0.30
2023-03-10T15:31:24.723Z,0.15
2023-03-10T15:33:52.519Z,0.40
2023-03-10T15:36:20.342Z,0.22
2023-03-10T15:38:48.322Z,0.80
2023-03-10T15:41:17.246Z,0.30
2023-03-10T15:43:46.571Z,1.27
2023-03-10T15:46:14.801Z,0.35
2023-03-10T15:48:42.970Z,2.70
2023-03-10T15:51:15.895Z,1.10
2023-03-10T15:53:43.972Z,0.93
2023-03-10T15:56:12.586Z,0.65
2023-03-10T15:58:40.713Z,1.35
2023-03-10T16:01:11.440Z,1.48
2023-03-10T16:03:39.623Z,0.73
2023-03-10T16:06:09.538Z,0.93
2023-03-10T16:08:38.806Z,1.05
2023-03-10T16:11:09.989Z,1.10
2023-03-10T16:13:37.777Z,1.25
2023-03-10T16:16:07.385Z,1.88
2023-03-10T16:18:36.915Z,0.93
2023-03-10T16:21:04.992Z,1.20
2023-03-10T16:23:34.438Z,2.67
2023-03-10T16:26:07.630Z,1.17
2023-03-10T16:28:35.867Z,2.90
2023-03-10T16:31:06.273Z,0.88
2023-03-10T16:33:36.045Z,1.58
2023-03-10T16:36:06.088Z,2.88
2023-03-10T16:38:35.793Z,2.95
2023-03-10T16:41:04.067Z,2.10
2023-03-10T16:43:33.471Z,2.25
2023-03-10T16:46:10.242Z,1.65
2023-03-10T16:49:41.176Z,1.88
2023-03-10T16:52:10.721Z,1.70
2023-03-10T16:54:39.041Z,2.78
2023-03-10T16:57:07.588Z,1.63
2023-03-10T16:59:35.406Z,4.10
2023-03-10T17:02:04.591Z,2.72
2023-03-10T17:04:32.474Z,2.28
2023-03-10T17:07:00.236Z,1.23
2023-03-10T17:09:29.394Z,1.65
2023-03-10T17:11:57.179Z,3.42
2023-03-10T17:14:25.411Z,2.53
2023-03-10T17:16:54.992Z,2.53
2023-03-10T17:19:28.608Z,3.47
2023-03-10T17:21:57.465Z,3.25
2023-03-10T17:24:25.596Z,4.55
2023-03-10T17:26:55.146Z,3.70
2023-03-10T17:29:23.030Z,4.40
2023-03-10T17:31:51.698Z,5.05
2023-03-10T17:34:20.790Z,3.00
2023-03-10T17:36:50.957Z,4.57
2023-03-10T17:39:20.671Z,2.65
2023-03-10T17:41:49.097Z,4.05
2023-03-10T17:44:18.609Z,4.13
2023-03-10T17:46:46.543Z,3.63
2023-03-10T17:49:16.006Z,4.20
2023-03-10T17:51:44.699Z,6.70
2023-03-10T17:54:14.315Z,5.75
2023-03-10T17:56:42.270Z,9.63
2023-03-10T17:59:12.584Z,5.75
2023-03-10T18:01:43.703Z,3.75
2023-03-10T18:04:12.388Z,5.07
2023-03-10T18:06:40.591Z,6.68
2023-03-10T18:09:10.212Z,3.47
2023-03-10T18:11:38.277Z,12.60
2023-03-10T18:14:06.268Z,5.78
2023-03-10T18:16:37.689Z,5.80
2023-03-10T18:19:10.434Z,5.43
2023-03-10T18:21:39.736Z,3.30
2023-03-10T18:24:08.722Z,3.30
2023-03-10T18:26:37.938Z,4.57
2023-03-10T18:29:05.841Z,5.63
2023-03-10T18:31:35.368Z,5.03
2023-03-10T18:34:03.945Z,4.70
2023-03-10T18:36:34.236Z,8.25
2023-03-10T18:39:03.866Z,7.97
2023-03-10T18:41:32.785Z,5.05
2023-03-10T18:44:01.292Z,4.75
2023-03-10T18:46:29.497Z,8.38
2023-03-10T18:48:57.326Z,6.50
2023-03-10T18:51:26.442Z,5.80
2023-03-10T18:53:55.878Z,10.80
2023-03-10T18:56:25.839Z,8.27
2023-03-10T18:58:54.013Z,5.75
2023-03-10T19:01:22.511Z,5.88
2023-03-10T19:03:50.402Z,6.47
2023-03-10T19:06:18.325Z,5.68
2023-03-10T19:08:46.158Z,7.18
2023-03-10T19:11:15.920Z,5.70
2023-03-10T19:13:44.981Z,5.93
2023-03-10T19:16:13.234Z,9.65
2023-03-10T19:18:41.332Z,6.00
2023-03-10T19:21:09.781Z,5.07
2023-03-10T19:23:37.764Z,6.25
2023-03-10T19:26:05.899Z,5.60
2023-03-10T19:28:35.039Z,6.60
2023-03-10T19:31:02.840Z,4.85
2023-03-10T19:33:30.678Z,5.65
2023-03-10T19:36:02.206Z,6.53
2023-03-10T19:38:30.264Z,4.45
2023-03-10T19:40:58.552Z,4.63
2023-03-10T19:43:26.400Z,4.57
2023-03-10T19:46:01.517Z,5.63
2023-03-10T19:48:29.959Z,3.88
2023-03-10T19:50:59.022Z,3.88
2023-03-10T19:53:29.024Z,1.67
2023-03-10T19:55:58.795Z,4.28
2023-03-10T19:58:27.165Z,2.83
2023-03-10T20:00:57.776Z,2.72
2023-03-10T20:03:29.478Z,3.28
2023-03-10T20:05:58.086Z,3.58
2023-03-10T20:08:26.095Z,2.63
2023-03-10T20:10:53.972Z,1.75
2023-03-10T20:13:21.928Z,4.82
2023-03-10T20:15:49.823Z,1.65
2023-03-10T20:18:18.498Z,0.98
2023-03-10T20:20:47.718Z,0.90
2023-03-10T20:23:16.037Z,2.95
2023-03-10T20:25:45.567Z,2.10
2023-03-10T20:28:13.729Z,0.80
2023-03-10T20:30:41.725Z,1.77
2023-03-10T20:33:09.612Z,1.75
2023-03-10T20:35:38.495Z,1.48
2023-03-10T20:38:07.746Z,1.88
2023-03-10T20:40:38.368Z,2.35
2023-03-10T20:43:08.362Z,3.40
2023-03-10T20:45:37.221Z,3.95
2023-03-10T20:48:05.306Z,3.83
2023-03-10T20:50:33.438Z,3.47
2023-03-10T20:53:01.884Z,5.78
2023-03-10T20:55:32.745Z,3.67
2023-03-10T20:58:01.687Z,5.00
2023-03-10T21:00:31.314Z,4.95
2023-03-10T21:02:59.252Z,3.00
2023-03-10T21:05:28.060Z,3.72
2023-03-10T21:07:56.500Z,1.90
2023-03-10T21:10:25.999Z,5.53
2023-03-10T21:12:55.240Z,0.47
2023-03-10T21:15:24.166Z,2.28
2023-03-10T21:17:51.925Z,2.58
2023-03-10T21:20:21.780Z,2.65
2023-03-10T21:22:50.057Z,2.42
2023-03-10T21:25:20.207Z,3.25
2023-03-10T21:27:48.216Z,1.13
2023-03-10T21:30:18.403Z,1.42
2023-03-10T21:32:47.059Z,2.88
2023-03-10T21:35:15.217Z,2.95
2023-03-10T21:37:46.797Z,1.63
2023-03-10T21:40:17.917Z,1.42
2023-03-10T21:42:45.710Z,2.03
2023-03-10T21:45:16.510Z,1.77
2023-03-10T21:47:46.161Z,1.95
2023-03-10T21:50:15.491Z,3.10
2023-03-10T21:52:43.384Z,2.45
2023-03-10T21:55:18.355Z,2.05
2023-03-10T21:57:46.112Z,1.65
2023-03-10T22:00:15.595Z,4.53
2023-03-10T22:02:44.921Z,3.42
2023-03-10T22:05:14.267Z,2.40
2023-03-10T22:07:42.134Z,3.92
2023-03-10T22:10:11.043Z,5.78
2023-03-10T22:12:39.005Z,3.42
2023-03-10T22:15:09.223Z,5.63
2023-03-10T22:17:37.063Z,3.38
2023-03-10T22:20:08.450Z,3.13
2023-03-10T22:22:36.252Z,2.42
2023-03-10T22:25:04.432Z,3.60
2023-03-10T22:27:32.196Z,4.20
2023-03-10T22:29:59.967Z,4.25
2023-03-10T22:32:27.834Z,2.55
2023-03-10T22:34:55.705Z,2.58
2023-03-10T22:37:24.856Z,3.35
2023-03-10T22:39:54.056Z,1.88
2023-03-10T22:42:21.862Z,1.85
2023-03-10T22:44:49.725Z,2.72
2023-03-10T22:47:18.559Z,3.38
2023-03-10T22:49:46.442Z,4.05
2023-03-10T22:52:14.328Z,2.45
2023-03-10T22:54:43.523Z,1.80
2023-03-10T22:57:14.941Z,3.10
2023-03-10T22:59:42.895Z,3.60
2023-03-10T23:02:10.688Z,1.88
2023-03-10T23:04:38.988Z,1.58
2023-03-10T23:07:07.025Z,3.33
2023-03-10T23:09:34.954Z,3.30
2023-03-10T23:12:04.202Z,1.58
2023-03-10T23:14:32.122Z,4.57
2023-03-10T23:16:59.927Z,2.17
2023-03-10T23:19:27.723Z,3.85
2023-03-10T23:21:55.593Z,5.53
2023-03-10T23:24:23.445Z,4.15
2023-03-10T23:26:51.318Z,2.88
2023-03-10T23:29:20.388Z,2.75
2023-03-10T23:31:48.209Z,7.47
2023-03-10T23:34:15.911Z,9.30
2023-03-10T23:36:43.653Z,4.07
2023-03-10T23:39:13.477Z,4.30
2023-03-10T23:41:41.359Z,4.70
2023-03-10T23:44:09.313Z,6.00
2023-03-10T23:46:38.455Z,4.28
2023-03-10T23:49:06.151Z,7.47
2023-03-10T23:51:34.098Z,9.38
2023-03-10T23:54:01.897Z,6.22
2023-03-10T23:56:29.669Z,6.45
2023-03-10T23:59:00.605Z,6.28
